Startpagina
METAR-TAF:

METAR-TAF

Vliegvelden :

Caïro, Egypte

Luchthaven Caïro Internationaal

breedte: 30-08N, lengte: 031-24E, hoogte: 64 m

Actueel weer

Dit bericht is 17 minuten geleden gemaakt, om 21:00 UTC
Wind 5 kt uit het noordnoordwesten
Temperatuur 15°C
Vochtigheid 67%
Druk 1022 hPa
Zicht: 3000 m
Gebroken wolken op 3000 ft
Heiigheid

METAR: HECA 162100Z 34005KT 3000 HZ BKN030 15/09 Q1022 NOSIG

Tijdstip: 23:17 (21:17 UTC)

Verwachting

Dit bericht is 2 uur en het 22 minuten geleden gemaakt, om 18:55 UTC
Verwachting geldig van 16 om 18 UTC tot 17 om 24 UTC
Wind 3 kt uit variabele richting
Zicht: 6000 m
Tijdelijke
van 16 om 18 UTC tot 17 om 09 UTC
Zicht: 3000 m
Heiigheid
Kans 40% :
Tijdelijke
van 17 om 00 UTC tot 17 om 06 UTC
Zicht: 1500 m
Wijzigt naar
van 17 om 07 UTC tot 17 om 09 UTC
Wind 9 kt uit het westen
Weinig wolken op 2500 ft

TAF: HECA 161855Z 1618/1724 VRB03KT 6000 NSC TEMPO 1618/1709 3000 HZ PROB40 TEMPO 1700/1706 1500 BECMG 1707/1709 27009KT FEW025

Waarnemingen en weersverwachtingen van meer dan 4000 vliegvelden (METAR en TAF).

De beschikbare stations zijn de gele en rode punten op de kaart.

Ga met uw muis naar het station om de naam te zien.

Klik dan om waarnemingen en weersverwachtingen te zien.

kaart wijzigen: klik op de groene knoppen met een zwart kruis om in te zoomen, op de groene knop met een streepje om uit te zoomen of op de groene pijlen voor aangrenzende kaarten.


METAR-TAF: